Albrighton, United Kingdom
Current Conditions -  °F | °C
As of 3:50 AM on Thursday 29 Jan 2015 (Local Time) from EGOS Reporting Station
Rain Showers Rain Showers  
Wind Chill: 28°   Ceiling: Unl
Heat Index: 36°   Visibility: 6mi
Dew Point: 30°   Wind: 12mph
Humidity: 81%   Direction: 260°W
Pressure: 29.23"   Gusts: NA
Location:  52.63°N, 2.27°W
Report Text: EGOS 290350Z AUTO 26010KT 9999 SHRA FEW009/// SCT018/// 02/M01 Q0990
Loading
Personal Weather Stations






























Interactive Weather Map New forecast layout! Learn more

10-Day Weather Forecast

Advertisements
Track Severe Weather on mobile